Terminal Aerodrome Forecast
Issued by NWS Tulsa, OK

Home | Current Version | Previous Version | Text Only | Print | Product List | Glossary On
Versions: 1 2 3 4 5 6 7 8 9 10 11 12 13 14 15 16 17
000
FTUS44 KTSA 020500
TAFFSM
TAF
KFSM 020520Z 0206/0306 07003KT P6SM BKN040
      TEMPO 0210/0214 4SM BR BKN012
     FM021400 10004KT P6SM BKN025
     FM021700 15006KT P6SM BKN035
     FM030200 11003KT P6SM SCT045=

USA.gov is the U.S. government's official web portal to all federal, state and local government web resources and services.